Time;durP1;ratioP1;P1;durP2;ratioP2;P2;SDS_P1;SDS_P2;PMS_P1;PMS_P2;Temp;Humidity;BMP_temperature;BMP_pressure;BME280_temperature;BME280_humidity;BME280_pressure;Samples;Min_cycle;Max_cycle;Signal;HPM_P1;HPM_P2
2023/06/16 00:01:08;;;;;;;14.63;5.90;;;;;;;24.59;41.23;98663.31;4997723;28;20058;-46
2023/06/16 00:03:34;;;;;;;31.15;8.10;;;;;;;24.77;41.43;98662.50;5015338;28;20030;-46
2023/06/16 00:06:15;;;;;;;24.88;7.18;;;;;;;24.88;40.19;98663.13;4999190;28;20060;-46
2023/06/16 00:08:44;;;;;;;13.90;6.05;;;;;;;24.72;40.92;98665.25;4998684;28;20021;-46
2023/06/16 00:11:11;;;;;;;8.35;5.90;;;;;;;24.35;41.92;98668.75;5015412;28;20032;-46
2023/06/16 00:13:37;;;;;;;12.23;5.47;;;;;;;23.95;42.11;98666.38;5015188;28;20404;-46
2023/06/16 00:16:03;;;;;;;8.77;5.57;;;;;;;23.78;42.37;98669.53;5015100;28;20022;-46
2023/06/16 00:18:29;;;;;;;13.02;6.35;;;;;;;23.73;42.25;98678.41;5013729;28;20030;-46
2023/06/16 00:20:57;;;;;;;13.75;5.90;;;;;;;23.85;42.69;98669.19;5013976;28;20431;-46
2023/06/16 00:23:23;;;;;;;15.75;6.25;;;;;;;24.04;42.25;98671.88;5013581;28;20065;-46
2023/06/16 00:25:50;;;;;;;22.48;6.88;;;;;;;24.05;42.43;98673.50;5015096;28;20127;-46
2023/06/16 00:28:15;;;;;;;12.27;6.13;;;;;;;24.17;42.07;98678.44;5013735;28;20026;-46
2023/06/16 00:30:41;;;;;;;13.55;5.65;;;;;;;24.07;41.05;98672.09;5015078;28;20030;-46
2023/06/16 00:33:07;;;;;;;12.25;5.38;;;;;;;23.86;40.94;98676.13;4996864;28;20034;-46
2023/06/16 00:35:33;;;;;;;9.88;5.43;;;;;;;23.62;41.75;98673.47;5014722;28;20026;-47
2023/06/16 00:37:58;;;;;;;15.50;6.13;;;;;;;23.62;41.63;98671.56;5014629;28;20026;-46
2023/06/16 00:40:24;;;;;;;11.60;5.60;;;;;;;23.70;41.60;98672.81;5013256;28;20036;-46
2023/06/16 00:42:49;;;;;;;9.52;5.20;;;;;;;23.56;41.70;98670.03;5013581;28;20030;-46
2023/06/16 00:45:15;;;;;;;11.20;6.25;;;;;;;23.51;42.01;98675.47;5014518;28;20049;-46
2023/06/16 00:47:42;;;;;;;14.30;6.25;;;;;;;23.44;42.98;98677.69;5013363;28;20479;-46
2023/06/16 00:50:08;;;;;;;12.20;5.15;;;;;;;23.14;43.22;98674.25;5014366;28;20132;-46
2023/06/16 00:52:36;;;;;;;15.38;5.68;;;;;;;22.94;43.63;98678.69;4996840;28;20036;-46
2023/06/16 00:55:02;;;;;;;9.13;5.13;;;;;;;22.81;42.79;98682.00;5012931;28;20403;-46
2023/06/16 00:57:29;;;;;;;13.65;5.55;;;;;;;22.71;43.02;98680.22;5013018;28;20050;-46
2023/06/16 00:59:55;;;;;;;9.00;5.30;;;;;;;22.68;43.13;98680.78;5014560;28;20037;-46
2023/06/16 01:02:21;;;;;;;11.82;6.00;;;;;;;22.78;44.04;98679.91;5014120;28;20038;-46
2023/06/16 01:04:48;;;;;;;12.60;5.80;;;;;;;22.99;43.88;98680.53;5012994;28;20069;-46
2023/06/16 01:07:31;;;;;;;11.98;6.93;;;;;;;22.96;44.45;98675.75;5012815;28;20583;-46
2023/06/16 01:10:10;;;;;;;20.63;7.30;;;;;;;22.86;44.43;98679.31;5013009;28;20496;-46
2023/06/16 01:12:35;;;;;;;16.15;6.32;;;;;;;22.79;44.24;98681.50;5012760;28;20054;-46
2023/06/16 01:15:06;;;;;;;12.73;6.28;;;;;;;22.77;43.60;98677.50;5012611;28;20072;-46
2023/06/16 01:17:46;;;;;;;10.93;5.00;;;;;;;22.80;43.71;98677.75;5013027;28;20034;-46
2023/06/16 01:20:27;;;;;;;13.98;5.65;;;;;;;22.92;43.63;98674.72;5012556;28;20040;-46
2023/06/16 01:23:14;;;;;;;21.15;6.30;;;;;;;23.00;43.73;98678.63;5012562;28;20422;-46
2023/06/16 01:25:43;;;;;;;12.88;5.45;;;;;;;22.97;43.19;98674.66;5013786;28;20595;-46
2023/06/16 01:28:10;;;;;;;7.95;5.32;;;;;;;22.99;43.68;98680.53;5013664;28;20072;-46
2023/06/16 01:30:42;;;;;;;12.05;5.65;;;;;;;23.04;43.30;98680.50;5013568;28;20113;-46
2023/06/16 01:33:10;;;;;;;6.35;5.28;;;;;;;22.93;43.13;98682.44;5013641;28;20025;-46
2023/06/16 01:35:38;;;;;;;11.75;5.85;;;;;;;22.77;43.17;98680.97;5013519;28;20022;-47
2023/06/16 01:38:04;;;;;;;16.55;5.78;;;;;;;22.73;43.14;98671.91;5013526;28;20021;-46
2023/06/16 01:40:32;;;;;;;11.15;5.10;;;;;;;22.79;42.25;98678.81;5012437;28;20028;-46
2023/06/16 01:42:58;;;;;;;17.17;5.97;;;;;;;22.76;41.87;98675.91;5013419;28;20022;-46
2023/06/16 01:45:25;;;;;;;8.73;4.97;;;;;;;22.67;42.36;98678.38;5012707;28;20025;-46
2023/06/16 01:47:52;;;;;;;17.10;5.82;;;;;;;22.67;42.32;98679.19;4995713;28;20018;-46
2023/06/16 01:50:18;;;;;;;20.70;6.18;;;;;;;22.80;42.91;98682.28;5013260;28;20113;-46
2023/06/16 01:52:43;;;;;;;12.07;5.88;;;;;;;22.82;43.22;98675.59;5011932;28;20033;-46
2023/06/16 01:55:09;;;;;;;8.15;6.32;;;;;;;22.62;43.86;98686.47;5011919;28;20413;-46
2023/06/16 01:57:35;;;;;;;12.40;6.55;;;;;;;22.05;44.98;98688.66;5011829;28;20114;-46
2023/06/16 02:00:15;;;;;;;7.70;5.88;;;;;;;21.67;46.71;98678.41;5011752;28;20068;-46
2023/06/16 02:02:49;;;;;;;15.70;6.47;;;;;;;21.52;47.59;98684.59;5013431;28;20105;-46
2023/06/16 02:05:17;;;;;;;12.43;6.07;;;;;;;21.34;47.67;98682.47;5011941;28;20025;-46
2023/06/16 02:07:45;;;;;;;14.82;7.22;;;;;;;21.21;48.20;98691.03;5011398;28;20050;-46
2023/06/16 02:10:12;;;;;;;14.20;6.55;;;;;;;21.05;48.47;98693.75;5012948;28;20068;-46
2023/06/16 02:12:38;;;;;;;14.60;6.05;;;;;;;21.06;48.94;98697.22;5011912;28;20029;-46
2023/06/16 02:15:05;;;;;;;15.65;6.40;;;;;;;21.13;49.15;98692.41;5012856;28;20499;-46
2023/06/16 02:17:31;;;;;;;9.77;6.53;;;;;;;21.14;49.23;98702.81;5011705;28;20105;-46
2023/06/16 02:19:58;;;;;;;18.38;6.97;;;;;;;21.01;49.72;98697.25;5012777;28;20104;-46
2023/06/16 02:22:24;;;;;;;13.63;6.78;;;;;;;21.12;49.86;98702.28;5012727;28;20036;-46
2023/06/16 02:24:49;;;;;;;8.38;6.28;;;;;;;21.23;49.81;98708.41;5011464;28;20013;-46
2023/06/16 02:27:15;;;;;;;8.55;6.47;;;;;;;21.41;49.47;98703.56;5011325;28;20065;-46
2023/06/16 02:29:41;;;;;;;18.83;6.90;;;;;;;21.40;49.54;98704.63;5011289;28;20060;-46
2023/06/16 02:32:07;;;;;;;7.30;6.53;;;;;;;21.23;49.88;98711.09;5012597;28;20058;-46
2023/06/16 02:34:33;;;;;;;15.07;6.93;;;;;;;20.91;50.76;98714.84;5012566;28;20474;-46
2023/06/16 02:37:00;;;;;;;16.40;7.05;;;;;;;20.84;51.18;98716.97;5011441;28;20022;-46
2023/06/16 02:39:26;;;;;;;16.25;7.22;;;;;;;20.79;51.61;98708.97;5011188;28;20033;-46
2023/06/16 02:41:52;;;;;;;15.35;6.80;;;;;;;20.81;51.60;98716.72;5011169;28;20030;-46
2023/06/16 02:44:17;;;;;;;14.20;7.78;;;;;;;20.94;51.52;98711.63;5012343;28;20033;-46
2023/06/16 02:46:43;;;;;;;32.90;8.80;;;;;;;21.12;51.28;98709.47;5011071;28;20034;-46
2023/06/16 02:49:08;;;;;;;19.83;7.38;;;;;;;21.20;50.97;98706.25;5010877;28;20109;-46
2023/06/16 02:51:34;;;;;;;19.75;7.38;;;;;;;21.28;50.82;98708.38;5010976;28;20018;-46
2023/06/16 02:54:01;;;;;;;16.80;6.65;;;;;;;21.09;51.07;98712.72;5010970;28;20030;-46
2023/06/16 02:56:28;;;;;;;13.52;6.35;;;;;;;21.07;51.09;98712.97;5012363;28;20033;-46
2023/06/16 02:58:54;;;;;;;13.45;6.43;;;;;;;20.74;50.88;98717.78;5012232;28;20104;-46
2023/06/16 03:01:21;;;;;;;18.33;7.03;;;;;;;20.57;52.18;98714.53;5012127;28;20427;-46
2023/06/16 03:03:48;;;;;;;16.13;7.03;;;;;;;20.62;51.88;98721.75;5012082;28;20034;-46
2023/06/16 03:06:16;;;;;;;14.30;7.18;;;;;;;20.55;51.99;98722.00;5011973;28;20054;-46
2023/06/16 03:08:42;;;;;;;17.88;6.78;;;;;;;20.33;52.10;98722.22;5011886;28;20097;-45
2023/06/16 03:11:07;;;;;;;16.02;6.85;;;;;;;20.11;53.16;98725.09;4994370;28;20466;-46
2023/06/16 03:13:33;;;;;;;17.05;6.47;;;;;;;20.28;53.13;98727.53;4994319;28;20030;-46
2023/06/16 03:16:00;;;;;;;13.05;6.07;;;;;;;20.35;52.55;98725.41;4994235;28;20033;-46
2023/06/16 03:18:27;;;;;;;14.18;6.65;;;;;;;20.37;52.62;98728.63;5011974;28;20038;-46
2023/06/16 03:20:53;;;;;;;12.05;7.05;;;;;;;20.22;52.32;98726.72;5011941;28;20026;-46
2023/06/16 03:23:19;;;;;;;19.75;7.88;;;;;;;20.10;53.00;98732.28;4994277;28;20514;-46
2023/06/16 03:25:45;;;;;;;14.68;6.53;;;;;;;20.11;53.51;98731.22;4994224;28;20033;-46
2023/06/16 03:28:10;;;;;;;18.30;6.75;;;;;;;20.24;53.19;98732.59;4994105;28;20022;-46
2023/06/16 03:30:36;;;;;;;14.20;6.88;;;;;;;20.26;53.08;98729.66;4994267;28;20026;-46
2023/06/16 03:33:02;;;;;;;13.82;6.88;;;;;;;20.37;52.83;98730.50;5011890;28;20588;-46
2023/06/16 03:35:27;;;;;;;14.75;6.85;;;;;;;20.58;52.78;98741.97;4994183;28;20030;-46
2023/06/16 03:37:53;;;;;;;12.68;6.38;;;;;;;20.68;52.45;98737.47;5011783;28;20408;-46
2023/06/16 03:40:18;;;;;;;8.63;6.30;;;;;;;20.71;51.53;98736.19;4994168;28;20033;-46
2023/06/16 03:42:44;;;;;;;22.48;7.70;;;;;;;20.33;51.65;98733.66;5011777;28;20030;-46
2023/06/16 03:45:10;;;;;;;13.65;7.15;;;;;;;20.26;52.74;98740.31;5011707;28;20022;-46
2023/06/16 03:47:36;;;;;;;15.75;6.75;;;;;;;20.36;52.19;98729.66;4994035;28;20022;-46
2023/06/16 03:50:02;;;;;;;15.05;7.18;;;;;;;20.29;52.13;98732.59;5011656;28;20053;-46
2023/06/16 03:52:28;;;;;;;25.00;7.40;;;;;;;20.34;52.01;98729.13;5011626;28;20028;-46
2023/06/16 03:54:54;;;;;;;13.10;6.43;;;;;;;20.24;51.63;98729.94;4994205;28;20390;-46
2023/06/16 03:57:19;;;;;;;14.60;7.45;;;;;;;19.92;52.11;98740.72;4993992;28;20026;-46
2023/06/16 03:59:45;;;;;;;16.90;7.18;;;;;;;19.80;52.93;98738.28;4994169;28;20026;-46
2023/06/16 04:02:11;;;;;;;13.38;6.72;;;;;;;19.65;52.54;98735.50;4993935;28;20029;-45
2023/06/16 04:04:37;;;;;;;15.95;6.80;;;;;;;19.11;53.24;98749.78;5011602;28;20022;-46
2023/06/16 04:07:05;;;;;;;13.40;7.35;;;;;;;18.81;54.51;98748.47;5003985;28;20527;-45
2023/06/16 04:09:31;;;;;;;13.15;6.82;;;;;;;18.83;54.84;98748.22;5015106;28;20026;-46
2023/06/16 04:11:57;;;;;;;12.32;6.95;;;;;;;18.83;54.95;98750.88;5015213;28;20439;-46
2023/06/16 04:14:23;;;;;;;8.10;6.50;;;;;;;18.77;54.70;98755.31;5015193;28;20112;-45
2023/06/16 04:16:49;;;;;;;14.68;7.38;;;;;;;18.43;55.38;98752.88;5015089;28;20092;-46
2023/06/16 04:19:17;;;;;;;13.30;6.70;;;;;;;17.99;56.44;98766.19;5015248;28;20060;-46
2023/06/16 04:21:43;;;;;;;25.52;8.10;;;;;;;17.72;57.96;98766.84;5015264;28;20018;-46
2023/06/16 04:24:10;;;;;;;14.90;7.30;;;;;;;18.15;57.59;98767.97;5013633;28;20125;-45
2023/06/16 04:26:37;;;;;;;22.33;7.80;;;;;;;18.90;55.86;98770.91;5013620;28;20026;-46
2023/06/16 04:29:06;;;;;;;14.23;6.90;;;;;;;19.48;54.06;98767.63;5013635;28;20049;-46
2023/06/16 04:31:33;;;;;;;15.90;7.30;;;;;;;19.80;53.14;98770.25;5014868;28;20105;-45
2023/06/16 04:34:02;;;;;;;12.27;6.70;;;;;;;19.99;52.30;98769.81;5014777;28;20026;-46
2023/06/16 04:36:29;;;;;;;19.13;7.93;;;;;;;20.15;52.06;98782.13;5014699;28;20026;-46
2023/06/16 04:38:59;;;;;;;13.45;6.45;;;;;;;20.29;51.85;98787.78;5014663;28;20034;-46
2023/06/16 04:41:25;;;;;;;17.52;7.60;;;;;;;20.24;52.21;98780.56;5014621;28;20025;-46
2023/06/16 04:43:50;;;;;;;18.88;7.65;;;;;;;20.51;51.99;98790.25;5014608;28;20034;-45
2023/06/16 04:46:16;;;;;;;22.73;10.35;;;;;;;21.03;50.97;98780.50;5013198;28;20048;-46
2023/06/16 04:48:42;;;;;;;13.52;7.30;;;;;;;21.57;49.64;98782.63;5014463;28;20109;-46
2023/06/16 04:51:08;;;;;;;20.35;9.13;;;;;;;22.19;48.29;98780.53;5013125;28;20026;-46
2023/06/16 04:53:34;;;;;;;12.65;7.57;;;;;;;22.78;46.38;98778.91;5014386;28;20029;-46
2023/06/16 04:56:00;;;;;;;14.63;8.27;;;;;;;22.83;45.45;98778.88;5014390;28;20492;-46
2023/06/16 04:58:25;;;;;;;18.77;8.65;;;;;;;22.94;45.38;98779.59;5014358;28;20088;-46
2023/06/16 05:00:51;;;;;;;13.75;7.22;;;;;;;23.28;44.55;98776.94;5014265;28;20411;-46
2023/06/16 05:03:17;;;;;;;9.80;6.75;;;;;;;23.50;44.23;98775.66;5012895;28;20030;-46
2023/06/16 05:05:43;;;;;;;10.48;7.57;;;;;;;23.70;44.03;98772.78;5012867;28;20141;-46
2023/06/16 05:08:11;;;;;;;26.60;7.40;;;;;;;24.43;42.73;98776.22;5014366;28;20042;-46
2023/06/16 05:10:37;;;;;;;18.17;7.38;;;;;;;25.19;41.10;98765.41;5013995;28;20060;-46
2023/06/16 05:13:02;;;;;;;26.80;7.32;;;;;;;25.83;40.13;98772.91;4996390;28;20026;-46
2023/06/16 05:15:28;;;;;;;19.73;7.38;;;;;;;26.43;39.25;98767.38;5013914;28;20488;-46
2023/06/16 05:17:54;;;;;;;31.80;7.97;;;;;;;26.90;37.95;98770.66;5013913;28;20030;-46
2023/06/16 05:20:20;;;;;;;12.10;6.53;;;;;;;27.26;37.12;98771.69;5012968;28;20105;-46
2023/06/16 05:22:45;;;;;;;16.83;6.25;;;;;;;27.08;36.79;98766.19;4996150;28;20492;-46
2023/06/16 05:25:11;;;;;;;14.23;6.35;;;;;;;27.31;36.80;98766.16;5013745;28;20053;-46
2023/06/16 05:27:37;;;;;;;15.80;7.55;;;;;;;27.80;36.01;98768.91;5013652;28;20049;-46
2023/06/16 05:30:02;;;;;;;15.65;6.65;;;;;;;28.01;35.64;98769.97;4995998;28;20121;-46
2023/06/16 05:32:28;;;;;;;22.48;7.97;;;;;;;28.40;34.55;98762.09;4995988;28;20446;-46
2023/06/16 05:34:54;;;;;;;28.27;7.45;;;;;;;28.78;34.34;98767.69;5013638;28;20029;-46
2023/06/16 05:37:20;;;;;;;17.52;6.53;;;;;;;29.21;33.43;98763.34;5013521;28;20025;-46
2023/06/16 05:39:47;;;;;;;12.77;6.78;;;;;;;29.59;32.44;98762.59;4996175;28;20034;-46
2023/06/16 05:42:14;;;;;;;17.90;7.28;;;;;;;29.93;31.94;98769.78;5013526;28;20033;-46
2023/06/16 05:44:44;;;;;;;26.42;7.45;;;;;;;30.31;32.05;98766.22;4995819;28;20036;-46
2023/06/16 05:47:10;;;;;;;16.63;7.00;;;;;;;30.62;31.20;98768.53;5013355;28;20033;-46
2023/06/16 05:49:36;;;;;;;16.30;6.47;;;;;;;30.50;31.31;98773.09;5013240;28;20084;-46
2023/06/16 05:52:05;;;;;;;8.57;6.30;;;;;;;30.95;30.94;98769.69;4996049;28;20412;-46
2023/06/16 05:54:33;;;;;;;11.40;6.63;;;;;;;31.47;30.17;98774.59;5013336;28;20504;-46
2023/06/16 05:57:00;;;;;;;22.92;8.45;;;;;;;32.01;29.31;98771.69;5013152;28;20025;-46
2023/06/16 05:59:26;;;;;;;16.65;6.63;;;;;;;32.53;28.80;98766.63;4995528;28;20443;-46
2023/06/16 06:01:53;;;;;;;15.68;6.63;;;;;;;32.91;28.34;98770.78;4995482;28;20076;-46
2023/06/16 06:04:32;;;;;;;11.52;6.80;;;;;;;33.43;27.74;98770.63;4995400;28;20026;-46
2023/06/16 06:06:58;;;;;;;16.58;6.82;;;;;;;33.81;27.44;98777.41;5012882;28;20420;-47
2023/06/16 06:09:24;;;;;;;29.63;7.25;;;;;;;34.11;26.76;98766.03;5012845;28;20046;-47
2023/06/16 06:11:50;;;;;;;45.13;9.02;;;;;;;34.43;25.95;98774.13;5012886;28;20033;-46
2023/06/16 06:14:16;;;;;;;12.82;6.47;;;;;;;34.76;25.63;98773.63;5012981;28;20033;-46
2023/06/16 06:16:42;;;;;;;22.35;7.32;;;;;;;35.05;24.87;98768.69;5012863;28;20049;-46
2023/06/16 06:19:08;;;;;;;43.38;9.13;;;;;;;35.34;25.06;98763.78;4995215;28;20026;-46
2023/06/16 06:21:35;;;;;;;24.17;7.70;;;;;;;35.76;24.64;98771.13;4995134;28;20052;-46
2023/06/16 06:24:01;;;;;;;43.38;8.25;;;;;;;36.42;24.36;98774.38;5012705;28;20032;-46
2023/06/16 06:26:27;;;;;;;17.65;8.13;;;;;;;36.97;23.66;98774.66;5012595;28;20022;-46
2023/06/16 06:28:52;;;;;;;38.38;8.88;;;;;;;37.05;22.54;98775.53;4994851;28;20041;-46
2023/06/16 06:31:18;;;;;;;64.93;10.57;;;;;;;36.97;23.06;98779.34;5012278;28;20514;-46
2023/06/16 06:33:45;;;;;;;43.42;9.73;;;;;;;36.90;22.66;98780.06;5012521;28;20029;-46
2023/06/16 06:36:11;;;;;;;44.60;9.77;;;;;;;36.93;22.26;98784.78;5012428;28;20515;-46
2023/06/16 06:38:36;;;;;;;31.77;8.43;;;;;;;37.02;22.51;98789.16;4994819;28;20038;-46
2023/06/16 06:41:02;;;;;;;29.30;10.55;;;;;;;37.26;22.32;98798.81;4994720;28;20041;-46
2023/06/16 06:43:28;;;;;;;12.98;7.03;;;;;;;37.41;22.18;98792.31;4994750;28;20522;-46
2023/06/16 06:45:54;;;;;;;43.97;15.65;;;;;;;37.37;22.24;98807.94;5012313;28;20018;-46
2023/06/16 06:48:20;;;;;;;36.63;9.13;;;;;;;37.67;21.63;98807.00;5012293;28;20029;-46
2023/06/16 06:50:47;;;;;;;21.08;7.05;;;;;;;37.83;21.56;98799.31;5012508;28;20519;-46
2023/06/16 06:53:13;;;;;;;47.85;9.38;;;;;;;37.97;21.23;98804.09;5012315;28;20029;-46
2023/06/16 06:55:39;;;;;;;14.20;7.25;;;;;;;38.44;20.38;98812.63;4994589;28;20025;-46
2023/06/16 06:58:05;;;;;;;19.05;9.10;;;;;;;38.67;20.33;98804.91;5012218;28;20492;-46
2023/06/16 07:00:30;;;;;;;22.02;7.53;;;;;;;38.76;20.16;98810.81;5012139;28;20026;-46
2023/06/16 07:02:56;;;;;;;21.67;8.35;;;;;;;38.82;20.29;98811.22;5012157;28;20037;-46
2023/06/16 07:05:22;;;;;;;25.45;15.57;;;;;;;38.58;20.41;98807.22;5012075;28;20452;-47
2023/06/16 07:07:47;;;;;;;41.78;17.50;;;;;;;38.45;20.78;98803.22;5013628;28;20045;-46
2023/06/16 07:10:13;;;;;;;27.25;15.38;;;;;;;38.19;20.77;98807.00;5031721;28;20037;-46
2023/06/16 07:12:38;;;;;;;12.45;9.57;;;;;;;38.24;20.30;98804.69;5014197;28;20036;-46
2023/06/16 07:15:05;;;;;;;21.17;9.80;;;;;;;38.46;20.42;98815.78;5031713;28;20064;-46
2023/06/16 07:17:31;;;;;;;31.92;11.48;;;;;;;38.48;20.40;98813.44;5031580;28;20071;-46
2023/06/16 07:19:57;;;;;;;26.55;9.68;;;;;;;38.50;20.40;98808.34;5031935;28;20034;-46
2023/06/16 07:22:22;;;;;;;18.42;8.63;;;;;;;38.30;20.33;98808.63;5031688;28;20542;-46
2023/06/16 07:24:48;;;;;;;16.35;6.95;;;;;;;38.12;21.19;98810.50;5031841;28;20051;-46
2023/06/16 07:27:14;;;;;;;32.03;12.07;;;;;;;37.72;21.42;98823.09;5031583;28;20490;-46
2023/06/16 07:29:40;;;;;;;43.25;12.48;;;;;;;37.52;21.85;98820.56;5013802;28;20026;-46
2023/06/16 07:32:06;;;;;;;9.60;5.78;;;;;;;37.27;21.94;98814.88;5031460;28;20079;-46
2023/06/16 07:34:31;;;;;;;10.20;5.68;;;;;;;36.87;22.77;98807.38;5031547;28;20032;-46
2023/06/16 07:36:57;;;;;;;10.90;5.13;;;;;;;36.62;22.45;98801.59;5031498;28;20021;-46
2023/06/16 07:39:24;;;;;;;11.52;4.65;;;;;;;36.76;22.52;98801.78;5013764;28;20505;-46
2023/06/16 07:41:50;;;;;;;10.98;4.90;;;;;;;37.39;21.97;98802.84;5031438;28;20095;-46
2023/06/16 07:44:16;;;;;;;19.00;6.35;;;;;;;37.55;21.74;98802.56;5035032;28;20155;-46
2023/06/16 07:46:45;;;;;;;19.70;5.15;;;;;;;37.87;21.06;98800.13;5035944;28;20029;-46
2023/06/16 07:49:14;;;;;;;16.60;5.90;;;;;;;37.81;21.26;98807.09;5035264;28;20021;-46
2023/06/16 07:51:41;;;;;;;7.70;5.13;;;;;;;38.09;21.28;98806.56;5035165;28;20017;-46
2023/06/16 07:54:07;;;;;;;110.68;13.68;;;;;;;38.69;21.43;98799.81;5017502;28;20038;-47
2023/06/16 07:56:33;;;;;;;20.42;6.35;;;;;;;39.17;19.85;98803.50;5017426;28;20033;-46
2023/06/16 07:58:59;;;;;;;19.52;6.05;;;;;;;39.37;19.85;98806.66;5017416;28;20033;-46
2023/06/16 08:01:26;;;;;;;20.58;6.97;;;;;;;39.78;19.43;98790.56;5035065;28;20021;-49
2023/06/16 08:03:52;;;;;;;21.02;6.38;;;;;;;40.34;18.67;98786.16;5035043;28;20025;-49
2023/06/16 08:06:18;;;;;;;17.85;6.50;;;;;;;40.74;18.59;98775.00;5017072;28;20037;-49
2023/06/16 08:08:44;;;;;;;32.30;7.72;;;;;;;41.05;18.40;98784.28;5034894;28;20030;-49
2023/06/16 08:11:10;;;;;;;34.45;6.85;;;;;;;41.04;18.43;98781.91;5017154;28;20036;-49
2023/06/16 08:13:35;;;;;;;12.77;5.28;;;;;;;40.59;18.66;98790.78;5017132;28;20029;-49
2023/06/16 08:16:01;;;;;;;21.40;5.82;;;;;;;40.76;18.03;98791.13;5034837;28;20057;-49
2023/06/16 08:18:27;;;;;;;19.85;7.25;;;;;;;41.29;17.68;98787.25;5017013;28;20021;-49
2023/06/16 08:20:52;;;;;;;29.77;6.65;;;;;;;41.67;17.69;98792.88;5034773;28;20025;-49
2023/06/16 08:23:18;;;;;;;14.65;5.32;;;;;;;42.08;17.56;98781.84;5034728;28;20059;-49
2023/06/16 08:25:45;;;;;;;21.27;6.05;;;;;;;42.18;17.01;98776.63;5034652;28;20057;-49
2023/06/16 08:28:11;;;;;;;41.33;7.13;;;;;;;42.51;16.94;98780.59;5034878;28;20026;-49
2023/06/16 08:30:36;;;;;;;41.55;6.57;;;;;;;42.68;17.09;98785.09;5034587;28;20036;-50
2023/06/16 08:33:02;;;;;;;14.95;5.35;;;;;;;42.84;17.02;98781.72;5016803;28;20522;-49
2023/06/16 08:35:29;;;;;;;10.95;3.92;;;;;;;42.75;15.99;98786.19;5016640;28;20045;-49
2023/06/16 08:37:54;;;;;;;16.05;4.95;;;;;;;42.92;15.63;98778.88;5034504;28;20454;-49
2023/06/16 08:40:20;;;;;;;19.83;5.78;;;;;;;43.19;15.61;98773.34;5034351;28;20053;-50
2023/06/16 08:42:47;;;;;;;16.17;5.30;;;;;;;43.21;15.27;98773.69;5034382;28;20029;-50
2023/06/16 08:45:13;;;;;;;11.50;4.68;;;;;;;42.93;15.75;98772.16;5016459;28;20060;-49
2023/06/16 08:47:40;;;;;;;19.45;5.45;;;;;;;42.67;16.06;98778.00;5016424;28;20063;-49
2023/06/16 08:50:09;;;;;;;16.23;4.88;;;;;;;42.94;16.13;98788.28;5016691;28;20101;-49
2023/06/16 08:52:39;;;;;;;14.15;4.50;;;;;;;43.25;15.44;98777.97;5016413;28;20449;-49
2023/06/16 08:55:13;;;;;;;6.65;3.85;;;;;;;43.48;15.40;98777.19;5016191;28;20029;-49
2023/06/16 08:57:53;;;;;;;10.75;4.32;;;;;;;43.40;15.31;98772.22;5034356;28;20428;-50
2023/06/16 09:00:20;;;;;;;9.80;3.95;;;;;;;43.31;15.68;98766.44;5034387;28;20034;-50
2023/06/16 09:02:48;;;;;;;11.85;4.32;;;;;;;43.16;15.46;98763.09;5016300;28;20068;-50
2023/06/16 09:05:16;;;;;;;11.57;4.25;;;;;;;43.04;15.90;98770.00;5033997;28;20040;-49
2023/06/16 09:07:42;;;;;;;11.07;4.68;;;;;;;43.41;15.59;98771.81;5014819;28;20046;-49
2023/06/16 09:10:08;;;;;;;17.52;4.70;;;;;;;43.40;15.62;98767.47;5014371;28;20045;-50
2023/06/16 09:12:35;;;;;;;22.98;5.45;;;;;;;43.34;15.60;98763.63;5013933;28;20022;-50
2023/06/16 09:15:01;;;;;;;12.25;4.65;;;;;;;43.34;15.68;98771.91;4996697;28;20018;-50
2023/06/16 09:17:30;;;;;;;62.45;7.80;;;;;;;43.03;15.64;98766.47;5013988;28;20148;-50
2023/06/16 09:19:56;;;;;;;13.48;4.63;;;;;;;42.68;15.92;98773.25;5013906;28;20022;-49
2023/06/16 09:22:26;;;;;;;23.73;4.63;;;;;;;42.72;15.81;98773.19;4996245;28;20075;-49
2023/06/16 09:24:58;;;;;;;18.20;4.78;;;;;;;43.25;16.32;98766.13;5014091;28;20099;-50
2023/06/16 09:27:45;;;;;;;26.55;5.40;;;;;;;43.92;15.05;98765.41;4996223;28;20026;-50
2023/06/16 09:30:18;;;;;;;11.88;4.45;;;;;;;44.42;14.68;98761.66;4979853;28;20065;-49
2023/06/16 09:32:46;;;;;;;11.43;4.22;;;;;;;44.53;14.52;98767.75;5013680;28;20504;-50
2023/06/16 09:35:24;;;;;;;13.25;4.70;;;;;;;44.07;15.24;98766.69;5013652;28;20072;-50
2023/06/16 09:37:56;;;;;;;22.45;5.47;;;;;;;43.65;15.08;98757.97;5013685;28;20033;-50
2023/06/16 09:40:29;;;;;;;11.73;4.43;;;;;;;43.15;15.33;98764.31;5013546;28;20026;-49
2023/06/16 09:43:03;;;;;;;11.45;4.70;;;;;;;42.68;15.73;98765.78;4995893;28;20021;-49
2023/06/16 09:45:33;;;;;;;15.55;4.82;;;;;;;42.50;15.87;98762.44;5013432;28;20041;-49
2023/06/16 09:48:08;;;;;;;14.25;5.13;;;;;;;42.47;15.82;98763.28;5013290;28;20064;-49
2023/06/16 09:50:34;;;;;;;15.75;4.88;;;;;;;42.59;15.82;98757.22;4996252;28;20060;-49
2023/06/16 09:53:04;;;;;;;14.48;4.70;;;;;;;42.65;15.91;98752.78;5013329;28;20060;-49
2023/06/16 09:55:32;;;;;;;17.13;5.93;;;;;;;42.57;16.40;98747.78;4995627;28;20022;-49
2023/06/16 09:57:57;;;;;;;22.77;5.85;;;;;;;42.84;15.98;98740.31;4995606;28;20030;-49
2023/06/16 10:00:25;;;;;;;9.65;4.75;;;;;;;42.76;15.50;98751.84;5013063;28;20617;-49
2023/06/16 10:02:51;;;;;;;8.75;3.75;;;;;;;42.73;15.41;98749.94;5013293;28;20025;-49
2023/06/16 10:05:22;;;;;;;13.07;4.15;;;;;;;42.57;16.15;98745.81;4994841;28;20053;-49
2023/06/16 10:07:53;;;;;;;15.73;4.45;;;;;;;42.17;16.37;98741.97;5012782;28;20092;-49
2023/06/16 10:10:23;;;;;;;12.15;4.82;;;;;;;42.18;15.98;98738.81;4995275;28;20487;-49
2023/06/16 10:12:50;;;;;;;7.22;3.95;;;;;;;41.64;16.66;98736.59;5012918;28;20508;-49
2023/06/16 10:15:38;;;;;;;15.52;4.32;;;;;;;41.63;16.70;98739.75;5012765;28;20022;-49
2023/06/16 10:18:07;;;;;;;7.95;4.55;;;;;;;41.94;16.56;98737.88;5012817;28;20519;-49
2023/06/16 10:20:34;;;;;;;6.10;3.72;;;;;;;42.45;16.06;98736.09;4995121;28;20037;-49
2023/06/16 10:23:00;;;;;;;5.65;4.15;;;;;;;42.47;16.05;98742.00;5013033;28;20048;-49
2023/06/16 10:25:28;;;;;;;11.77;4.25;;;;;;;42.57;16.34;98737.53;5012713;28;20022;-50
2023/06/16 10:27:55;;;;;;;6.18;3.78;;;;;;;42.70;15.91;98737.72;4995408;28;20030;-49
2023/06/16 10:30:21;;;;;;;12.85;3.97;;;;;;;42.72;15.66;98740.84;5012772;28;20033;-49
2023/06/16 10:32:54;;;;;;;6.95;3.30;;;;;;;43.08;15.06;98735.63;5012675;28;20499;-49
2023/06/16 10:35:21;;;;;;;;;;;;;;;43.34;14.91;98727.69;5013055;28;20487;-50
2023/06/16 10:37:52;;;;;;;13.38;4.38;;;;;;;43.08;15.17;98730.09;4994889;28;19932;-50
2023/06/16 10:40:23;;;;;;;6.53;3.30;;;;;;;43.26;14.80;98740.06;5012442;28;20030;-49
2023/06/16 10:42:52;;;;;;;6.68;3.58;;;;;;;43.46;14.61;98732.63;4994812;28;20204;-50
2023/06/16 10:45:29;;;;;;;6.22;3.55;;;;;;;43.36;14.46;98733.59;4994665;28;20022;-49
2023/06/16 10:47:56;;;;;;;8.82;4.57;;;;;;;43.19;14.55;98724.38;4994598;28;20034;-50
2023/06/16 10:50:37;;;;;;;6.75;3.30;;;;;;;43.07;15.16;98724.97;5012538;28;20018;-49
2023/06/16 10:53:14;;;;;;;6.90;3.17;;;;;;;42.69;14.72;98730.66;5012352;28;20037;-50
2023/06/16 10:55:45;;;;;;;6.22;3.78;;;;;;;43.10;14.58;98726.91;5012195;28;20021;-50
2023/06/16 10:58:14;;;;;;;17.75;3.97;;;;;;;42.87;14.67;98725.69;5012192;28;20037;-50
2023/06/16 11:01:02;;;;;;;6.82;3.28;;;;;;;43.07;13.82;98723.00;5012086;28;20022;-49
2023/06/16 11:03:37;;;;;;;5.43;3.15;;;;;;;42.72;13.77;98726.28;5012185;28;20029;-49
2023/06/16 11:06:04;;;;;;;12.52;3.90;;;;;;;42.74;13.73;98726.63;5011864;28;20072;-49
2023/06/16 11:08:30;;;;;;;11.25;3.83;;;;;;;42.91;13.97;98722.09;5011890;28;20022;-50
2023/06/16 11:11:02;;;;;;;8.38;3.63;;;;;;;42.91;13.97;98713.81;5012121;28;20037;-50
2023/06/16 11:13:33;;;;;;;18.42;3.83;;;;;;;42.66;13.98;98712.97;4994308;28;20025;-50
2023/06/16 11:16:00;;;;;;;8.18;3.65;;;;;;;42.72;14.04;98712.47;5012053;28;20502;-49
2023/06/16 11:18:30;;;;;;;22.77;4.38;;;;;;;43.13;14.42;98712.25;4993348;28;20033;-49
2023/06/16 11:21:00;;;;;;;4.35;3.65;;;;;;;42.97;13.95;98718.44;5011985;28;20089;-49
2023/06/16 11:23:27;;;;;;;15.48;4.07;;;;;;;42.78;13.84;98711.56;5011912;28;20030;-50
2023/06/16 11:26:01;;;;;;;4.00;3.10;;;;;;;42.45;14.12;98716.00;5011939;28;20049;-50
2023/06/16 11:28:27;;;;;;;18.20;4.45;;;;;;;41.94;14.45;98709.50;4994383;28;20434;-50